Time;durP1;ratioP1;P1;durP2;ratioP2;P2;SDS_P1;SDS_P2;PMS_P1;PMS_P2;Temp;Humidity;BMP_temperature;BMP_pressure;BME280_temperature;BME280_humidity;BME280_pressure;Samples;Min_cycle;Max_cycle;Signal;HPM_P1;HPM_P2
2022/04/29 00:00:51;;;;;;;20.25;7.45;;;;;;;15.84;32.65;102281.22;5029936;28;20050;-71
2022/04/29 00:03:18;;;;;;;21.83;7.95;;;;;;;15.80;32.83;102277.97;5030593;28;20057;-71
2022/04/29 00:05:45;;;;;;;20.35;7.63;;;;;;;15.76;32.76;102278.47;5030153;28;20128;-71
2022/04/29 00:08:13;;;;;;;19.52;7.28;;;;;;;15.70;32.87;102275.34;5030673;28;20056;-71
2022/04/29 00:10:41;;;;;;;21.15;6.90;;;;;;;15.74;32.75;102275.06;5031395;28;20470;-71
2022/04/29 00:13:11;;;;;;;19.33;7.32;;;;;;;15.65;33.10;102272.28;5030728;28;20149;-71
2022/04/29 00:15:38;;;;;;;14.40;7.15;;;;;;;15.73;32.85;102281.47;5029975;28;20060;-71
2022/04/29 00:18:05;;;;;;;13.38;6.53;;;;;;;15.61;33.29;102270.03;5029175;28;20486;-71
2022/04/29 00:20:31;;;;;;;23.20;6.65;;;;;;;15.62;33.09;102277.13;5030011;28;20124;-71
2022/04/29 00:22:58;;;;;;;14.82;7.25;;;;;;;15.62;33.22;102277.97;5030654;28;20120;-71
2022/04/29 00:25:24;;;;;;;16.77;7.38;;;;;;;15.59;33.31;102275.56;5042636;28;20051;-71
2022/04/29 00:27:51;;;;;;;16.40;6.40;;;;;;;15.51;33.42;102275.50;5050194;28;20127;-71
2022/04/29 00:30:17;;;;;;;16.60;6.55;;;;;;;15.46;33.31;102272.41;5049832;28;20451;-71
2022/04/29 00:32:43;;;;;;;18.73;7.00;;;;;;;15.49;33.46;102275.66;5050393;28;20132;-71
2022/04/29 00:35:10;;;;;;;13.30;6.20;;;;;;;15.37;33.58;102285.03;5049114;28;20137;-71
2022/04/29 00:37:48;;;;;;;16.35;6.57;;;;;;;15.09;34.21;102277.97;5050040;28;20113;-71
2022/04/29 00:40:20;;;;;;;17.98;6.68;;;;;;;15.23;33.88;102278.28;5047968;28;20501;-71
2022/04/29 00:42:48;;;;;;;20.92;6.78;;;;;;;15.09;34.25;102281.53;5050321;28;20143;-71
2022/04/29 00:45:16;;;;;;;21.38;7.45;;;;;;;15.34;33.76;102276.38;5048927;28;20124;-70
2022/04/29 00:47:44;;;;;;;15.82;7.05;;;;;;;15.13;34.08;102274.81;5049628;28;20049;-71
2022/04/29 00:50:12;;;;;;;18.40;6.85;;;;;;;15.27;33.79;102278.84;5048094;28;20063;-71
2022/04/29 00:52:42;;;;;;;17.83;7.43;;;;;;;15.14;33.90;102271.09;5048767;28;20073;-71
2022/04/29 00:55:11;;;;;;;17.13;6.95;;;;;;;15.16;33.83;102271.78;5049235;28;20041;-71
2022/04/29 00:58:06;;;;;;;19.05;7.15;;;;;;;15.15;33.80;102272.78;5049257;28;20545;-71
2022/04/29 01:00:33;;;;;;;13.45;6.85;;;;;;;15.14;33.88;102268.38;5050902;28;20459;-71
2022/04/29 01:03:00;;;;;;;13.32;6.43;;;;;;;15.04;34.01;102275.69;5053109;28;20408;-71
2022/04/29 01:09:14;;;;;;;16.00;6.65;;;;;;;14.98;34.07;102271.78;5028415;28;20056;-71
2022/04/29 01:11:40;;;;;;;19.55;7.25;;;;;;;15.03;33.95;102274.00;5054005;28;20563;-71
2022/04/29 01:14:07;;;;;;;20.05;7.80;;;;;;;15.06;33.97;102265.59;5052211;28;20068;-71
2022/04/29 01:16:34;;;;;;;18.17;7.70;;;;;;;15.09;33.83;102270.72;5053482;28;20056;-71
2022/04/29 01:19:00;;;;;;;18.67;7.60;;;;;;;15.00;34.09;102264.34;5050605;28;20075;-71
2022/04/29 01:21:27;;;;;;;15.15;7.35;;;;;;;14.99;34.14;102275.31;5052557;28;23015;-71
2022/04/29 01:23:53;;;;;;;18.92;7.03;;;;;;;14.83;34.25;102267.84;5053288;28;20065;-71
2022/04/29 01:26:20;;;;;;;17.70;7.30;;;;;;;14.81;34.27;102258.19;5053708;28;20477;-71
2022/04/29 01:28:46;;;;;;;22.85;7.60;;;;;;;14.74;34.61;102261.53;5053351;28;20087;-71
2022/04/29 01:31:14;;;;;;;13.25;7.50;;;;;;;14.72;34.55;102260.81;5053467;28;20048;-71
2022/04/29 01:33:42;;;;;;;14.80;7.45;;;;;;;14.71;34.55;102259.13;5054007;28;20040;-71
2022/04/29 01:36:09;;;;;;;16.38;7.35;;;;;;;14.67;34.64;102257.69;5053298;28;20045;-71
2022/04/29 01:38:37;;;;;;;16.98;8.32;;;;;;;14.58;34.58;102253.19;5053575;28;20041;-71
2022/04/29 01:41:05;;;;;;;17.42;7.63;;;;;;;14.69;34.72;102247.56;5054093;28;20041;-71
2022/04/29 01:43:35;;;;;;;17.92;7.60;;;;;;;14.67;34.56;102249.59;5053424;28;20091;-71
2022/04/29 01:46:02;;;;;;;17.15;5.57;;;;;;;14.51;34.87;102250.22;5053561;28;20136;-71
2022/04/29 01:48:28;;;;;;;15.48;7.45;;;;;;;14.61;34.84;102242.06;5053608;28;20499;-71
2022/04/29 01:50:55;;;;;;;32.47;8.60;;;;;;;14.52;34.97;102248.38;5053051;28;20442;-71
2022/04/29 01:53:22;;;;;;;13.80;7.80;;;;;;;14.52;34.84;102245.66;5053639;28;20132;-70
2022/04/29 01:55:48;;;;;;;15.07;7.78;;;;;;;14.51;34.95;102239.41;5054480;28;20096;-71
2022/04/29 01:58:15;;;;;;;20.55;7.07;;;;;;;14.56;34.86;102236.25;5053441;28;20060;-71
2022/04/29 02:00:41;;;;;;;18.58;7.78;;;;;;;14.61;34.73;102244.78;5054271;28;20136;-70
2022/04/29 02:03:08;;;;;;;14.45;7.45;;;;;;;14.59;34.46;102235.13;5046521;28;20128;-71
2022/04/29 02:05:35;;;;;;;16.85;7.43;;;;;;;14.66;34.71;102236.22;5053490;28;20049;-71
2022/04/29 02:08:02;;;;;;;27.17;8.75;;;;;;;13.88;36.10;102244.59;5053497;28;20052;-71
2022/04/29 02:10:28;;;;;;;18.92;7.95;;;;;;;14.57;34.99;102235.28;5054830;28;20129;-71
2022/04/29 02:12:55;;;;;;;20.70;6.93;;;;;;;14.52;35.14;102235.72;5052524;28;20049;-70
2022/04/29 02:15:21;;;;;;;14.75;7.78;;;;;;;14.61;34.83;102244.78;5054656;28;20072;-71
2022/04/29 02:17:48;;;;;;;12.98;7.88;;;;;;;14.61;34.72;102244.78;5053935;28;20064;-71
2022/04/29 02:20:14;;;;;;;16.30;7.47;;;;;;;14.64;34.78;102244.47;5053924;28;20071;-71
2022/04/29 02:22:40;;;;;;;26.55;8.45;;;;;;;14.57;34.85;102245.22;5054276;28;20405;-71
2022/04/29 02:25:07;;;;;;;21.55;8.27;;;;;;;14.56;34.99;102247.06;5053793;28;20055;-71
2022/04/29 02:27:35;;;;;;;13.85;7.70;;;;;;;14.56;35.01;102236.25;5048647;28;20477;-71
2022/04/29 02:30:04;;;;;;;20.58;8.07;;;;;;;14.45;35.24;102249.97;5053483;28;20124;-71
2022/04/29 02:32:31;;;;;;;19.17;8.18;;;;;;;14.43;35.29;102243.88;5053518;28;20128;-71
2022/04/29 02:34:58;;;;;;;20.55;8.60;;;;;;;14.35;35.23;102252.69;5052928;28;20460;-71
2022/04/29 02:37:26;;;;;;;14.93;8.38;;;;;;;14.44;35.21;102248.28;5053995;28;20056;-71
2022/04/29 02:39:53;;;;;;;12.38;7.55;;;;;;;14.38;35.18;102248.84;5053012;28;20081;-71
2022/04/29 02:42:19;;;;;;;18.80;8.07;;;;;;;14.32;35.44;102244.03;5045288;28;20045;-71
2022/04/29 02:44:46;;;;;;;15.10;7.70;;;;;;;14.33;35.46;102241.22;5054142;28;20134;-71
2022/04/29 02:47:13;;;;;;;18.58;7.95;;;;;;;14.23;35.55;102240.38;5054789;28;20476;-70
2022/04/29 02:49:41;;;;;;;21.33;7.78;;;;;;;14.16;35.61;102239.28;5054958;28;20135;-70
2022/04/29 02:52:11;;;;;;;19.25;7.75;;;;;;;14.24;35.49;102232.13;5054376;28;20041;-71
2022/04/29 02:54:39;;;;;;;16.48;7.68;;;;;;;14.18;35.49;102248.91;5049748;28;20552;-70
2022/04/29 02:57:06;;;;;;;20.98;8.40;;;;;;;14.15;35.54;102246.53;5053641;28;20404;-71
2022/04/29 02:59:32;;;;;;;14.57;8.05;;;;;;;14.07;35.68;102241.00;5053867;28;20440;-71
2022/04/29 03:01:59;;;;;;;23.10;8.30;;;;;;;14.04;36.14;102241.28;5052850;28;20116;-71
2022/04/29 03:04:26;;;;;;;20.73;8.18;;;;;;;14.07;35.62;102235.59;5054449;28;20069;-71
2022/04/29 03:06:53;;;;;;;14.52;7.97;;;;;;;14.05;35.72;102237.63;5053497;28;20136;-70
2022/04/29 03:09:20;;;;;;;14.35;7.93;;;;;;;13.95;36.11;102234.09;5053147;28;20162;-71
2022/04/29 03:11:49;;;;;;;16.17;7.60;;;;;;;13.96;35.94;102228.53;5054689;28;20063;-71
2022/04/29 03:14:16;;;;;;;16.85;8.13;;;;;;;13.91;36.21;102229.94;5052826;28;20500;-71
2022/04/29 03:16:48;;;;;;;17.35;8.68;;;;;;;13.90;36.03;102233.66;5054203;28;20052;-71
2022/04/29 03:19:15;;;;;;;16.23;8.20;;;;;;;13.81;36.10;102232.69;5053595;28;20389;-71
2022/04/29 03:21:41;;;;;;;16.77;7.57;;;;;;;13.78;36.03;102238.38;5054901;28;20492;-71
2022/04/29 03:24:08;;;;;;;19.48;8.35;;;;;;;13.90;36.01;102234.50;5054033;28;20371;-71
2022/04/29 03:26:35;;;;;;;16.30;7.88;;;;;;;13.78;36.22;102236.53;5053457;28;20048;-71
2022/04/29 03:29:02;;;;;;;17.30;8.27;;;;;;;13.77;36.14;102237.53;5053576;28;20040;-71
2022/04/29 03:31:29;;;;;;;17.83;8.50;;;;;;;13.81;36.22;102238.94;5052866;28;20529;-71
2022/04/29 03:33:55;;;;;;;15.95;8.23;;;;;;;13.79;36.28;102232.81;5052725;28;20068;-71
2022/04/29 03:36:22;;;;;;;15.23;7.47;;;;;;;13.77;36.28;102234.81;5052072;28;20069;-71
2022/04/29 03:38:48;;;;;;;17.50;8.10;;;;;;;13.74;36.43;102231.53;5053598;28;20076;-71
2022/04/29 03:41:15;;;;;;;20.35;7.68;;;;;;;13.73;36.43;102227.97;5053558;28;20067;-71
2022/04/29 03:43:41;;;;;;;18.48;7.88;;;;;;;13.77;36.36;102223.19;5054464;28;20072;-71
2022/04/29 03:46:07;;;;;;;19.50;8.30;;;;;;;13.65;36.42;102224.31;5054035;28;20128;-71
2022/04/29 03:51:20;;;;;;;24.13;8.48;;;;;;;13.53;36.58;102237.94;5053928;28;20076;-70
2022/04/29 03:53:48;;;;;;;17.15;8.25;;;;;;;13.67;36.38;102233.09;5052858;28;20041;-71
2022/04/29 03:56:15;;;;;;;17.75;8.50;;;;;;;13.58;36.54;102226.72;5053816;28;20127;-71
2022/04/29 03:58:42;;;;;;;16.15;8.10;;;;;;;13.62;36.59;102238.91;5051934;28;20041;-71
2022/04/29 04:01:10;;;;;;;17.67;7.93;;;;;;;13.58;36.74;102229.41;5052443;28;20040;-71
2022/04/29 04:03:36;;;;;;;15.43;7.40;;;;;;;13.64;36.58;102230.69;5052183;28;20067;-71
2022/04/29 04:08:48;;;;;;;16.27;8.27;;;;;;;13.65;36.86;102235.09;5051983;28;20131;-70
2022/04/29 04:11:14;;;;;;;17.60;8.50;;;;;;;13.63;36.94;102231.66;5053609;28;20076;-71
2022/04/29 04:13:41;;;;;;;13.77;7.78;;;;;;;13.77;36.60;102234.81;5028344;28;20460;-71
2022/04/29 04:16:08;;;;;;;19.52;8.48;;;;;;;13.73;36.47;102225.25;5053656;28;20068;-71
2022/04/29 04:18:35;;;;;;;26.00;8.88;;;;;;;13.85;36.39;102222.47;5052918;28;20523;-71
2022/04/29 04:21:01;;;;;;;24.10;8.68;;;;;;;13.77;36.81;102228.59;5052066;28;20127;-71
2022/04/29 04:23:28;;;;;;;13.32;8.00;;;;;;;13.94;36.57;102230.53;5051867;28;20489;-70
2022/04/29 04:25:56;;;;;;;18.38;8.63;;;;;;;13.98;36.42;102231.94;5053420;28;20128;-71
2022/04/29 04:28:23;;;;;;;17.13;9.10;;;;;;;14.10;36.25;102237.16;5052799;28;20545;-70
2022/04/29 04:30:50;;;;;;;24.95;9.48;;;;;;;14.16;35.91;102241.97;5052917;28;20041;-70
2022/04/29 04:33:16;;;;;;;18.95;8.43;;;;;;;14.16;36.28;102242.81;5052758;28;20052;-71
2022/04/29 04:35:42;;;;;;;16.25;8.90;;;;;;;14.37;35.86;102241.75;5052897;28;20098;-71
2022/04/29 04:38:09;;;;;;;17.73;8.73;;;;;;;14.49;35.53;102237.84;5056760;28;20132;-71
2022/04/29 04:40:35;;;;;;;20.67;8.35;;;;;;;14.57;35.56;102226.34;5056910;28;20065;-71
2022/04/29 04:43:02;;;;;;;16.70;8.45;;;;;;;14.75;35.21;102230.78;5055874;28;20132;-71
2022/04/29 04:45:29;;;;;;;21.38;8.57;;;;;;;14.75;35.25;102235.34;5056389;28;20116;-71
2022/04/29 04:47:56;;;;;;;19.27;9.63;;;;;;;14.80;35.11;102232.19;5055523;28;20128;-71
2022/04/29 04:50:23;;;;;;;19.92;8.70;;;;;;;15.06;34.72;102233.16;5055451;28;20576;-71
2022/04/29 04:52:49;;;;;;;17.10;7.95;;;;;;;15.14;34.53;102235.94;5055293;28;20083;-71
2022/04/29 04:55:16;;;;;;;20.73;8.90;;;;;;;15.19;34.18;102233.66;5056008;28;20128;-71
2022/04/29 04:57:43;;;;;;;25.38;8.10;;;;;;;15.15;34.05;102243.03;5055468;28;20048;-71
2022/04/29 05:00:10;;;;;;;23.63;8.57;;;;;;;15.22;33.49;102246.84;5054398;28;20119;-70
2022/04/29 05:02:40;;;;;;;19.48;8.90;;;;;;;15.32;33.28;102249.47;5054106;28;20076;-71
2022/04/29 05:05:08;;;;;;;23.50;8.30;;;;;;;15.34;33.07;102252.88;5054033;28;20447;-71
2022/04/29 05:07:38;;;;;;;24.65;8.40;;;;;;;15.52;33.24;102244.75;5054344;28;20042;-71
2022/04/29 05:10:07;;;;;;;28.20;8.70;;;;;;;15.62;33.39;102248.22;5053618;28;20056;-71
2022/04/29 05:12:45;;;;;;;23.02;8.15;;;;;;;15.73;32.97;102254.41;5052551;28;20124;-71
2022/04/29 05:15:12;;;;;;;22.27;7.72;;;;;;;15.64;32.35;102253.50;5054172;28;20150;-70
2022/04/29 05:17:39;;;;;;;16.20;7.78;;;;;;;15.68;32.95;102261.16;5054367;28;20401;-71
2022/04/29 05:20:07;;;;;;;28.73;8.35;;;;;;;15.74;32.08;102259.66;5054723;28;20052;-71
2022/04/29 05:22:34;;;;;;;20.60;8.60;;;;;;;15.74;31.84;102256.97;5049124;28;20083;-71
2022/04/29 05:25:01;;;;;;;21.70;8.35;;;;;;;15.56;30.98;102265.06;5054858;28;20073;-71
2022/04/29 05:27:27;;;;;;;18.00;7.15;;;;;;;15.60;30.14;102262.91;5054470;28;20128;-70
2022/04/29 05:29:53;;;;;;;21.42;8.20;;;;;;;15.56;29.67;102256.94;5053938;28;20068;-71
2022/04/29 05:32:20;;;;;;;23.58;7.72;;;;;;;15.63;29.22;102262.63;5054263;28;20136;-71
2022/04/29 05:34:47;;;;;;;19.38;7.03;;;;;;;15.45;29.15;102260.75;5054455;28;20105;-71
2022/04/29 05:37:14;;;;;;;14.75;6.00;;;;;;;15.74;28.61;102258.81;5053884;28;20060;-71
2022/04/29 05:42:25;;;;;;;18.23;6.88;;;;;;;15.37;27.90;102255.28;5047101;28;20103;-71
2022/04/29 05:44:53;;;;;;;27.02;6.35;;;;;;;15.53;27.46;102256.41;5053090;28;20124;-71
2022/04/29 05:47:19;;;;;;;14.77;5.38;;;;;;;15.54;27.90;102250.88;5052965;28;20500;-71
2022/04/29 05:49:46;;;;;;;20.30;5.47;;;;;;;15.84;27.10;102246.03;5052494;28;20069;-71
2022/04/29 05:52:12;;;;;;;13.60;4.88;;;;;;;15.38;27.63;102251.56;5051481;28;20128;-71
2022/04/29 05:54:39;;;;;;;16.98;5.88;;;;;;;15.96;27.06;102258.31;5052304;28;20127;-71
2022/04/29 05:57:10;;;;;;;19.40;5.13;;;;;;;16.25;26.46;102251.72;5052995;28;20049;-71
2022/04/29 05:59:36;;;;;;;15.40;4.45;;;;;;;15.74;26.81;102250.69;5052191;28;20049;-71
2022/04/29 06:02:03;;;;;;;20.70;4.60;;;;;;;15.56;27.02;102251.53;5053438;28;20045;-71
2022/04/29 06:04:30;;;;;;;16.00;5.68;;;;;;;15.48;26.74;102248.78;5052170;28;20053;-71
2022/04/29 06:06:56;;;;;;;14.65;3.92;;;;;;;15.59;26.20;102251.22;5052015;28;20124;-71
2022/04/29 06:09:25;;;;;;;14.88;4.20;;;;;;;16.11;25.77;102251.31;5051887;28;20079;-70
2022/04/29 06:11:52;;;;;;;16.52;4.65;;;;;;;16.14;25.71;102250.16;5051840;28;20124;-69
2022/04/29 06:14:25;;;;;;;14.55;4.18;;;;;;;16.54;25.11;102259.53;5051354;28;20136;-71
2022/04/29 06:16:51;;;;;;;15.88;4.40;;;;;;;16.64;25.12;102252.13;5051166;28;20068;-70
2022/04/29 06:19:18;;;;;;;14.50;4.30;;;;;;;16.86;25.74;102261.53;5051845;28;20481;-71
2022/04/29 06:21:44;;;;;;;15.25;4.05;;;;;;;16.45;24.41;102260.47;5051698;28;20049;-71
2022/04/29 06:24:11;;;;;;;17.23;4.45;;;;;;;16.97;25.09;102254.97;5052277;28;20474;-71
2022/04/29 06:26:37;;;;;;;20.15;4.57;;;;;;;16.40;24.93;102266.34;5051255;28;20088;-70
2022/04/29 06:29:04;;;;;;;20.40;4.63;;;;;;;16.42;24.28;102261.66;5052139;28;20094;-70
2022/04/29 06:31:30;;;;;;;19.88;4.68;;;;;;;16.40;24.96;102264.53;5051582;28;20107;-71
2022/04/29 06:33:57;;;;;;;13.70;4.63;;;;;;;17.26;24.02;102257.22;5051618;28;20485;-70
2022/04/29 06:36:23;;;;;;;17.30;4.93;;;;;;;16.90;24.37;102262.91;5051730;28;20132;-71
2022/04/29 06:38:50;;;;;;;17.83;5.80;;;;;;;16.77;24.94;102260.63;5051332;28;20492;-71
2022/04/29 06:41:16;;;;;;;19.65;5.50;;;;;;;16.62;25.49;102263.13;5051793;28;20084;-70
2022/04/29 06:43:43;;;;;;;18.67;5.90;;;;;;;16.91;25.21;102270.00;5051053;28;20540;-70
2022/04/29 06:46:10;;;;;;;23.52;5.50;;;;;;;16.05;25.78;102268.19;5051833;28;20127;-70
2022/04/29 06:48:36;;;;;;;22.33;7.05;;;;;;;16.52;25.47;102265.13;5057306;28;20466;-71
2022/04/29 06:51:03;;;;;;;20.20;5.38;;;;;;;17.55;23.66;102268.47;5054883;28;20071;-71
2022/04/29 06:53:30;;;;;;;16.17;4.72;;;;;;;17.68;23.70;102272.53;5051335;28;20048;-71
2022/04/29 06:55:56;;;;;;;19.67;4.40;;;;;;;18.30;23.08;102261.97;5051834;28;20120;-71
2022/04/29 06:58:23;;;;;;;23.60;5.57;;;;;;;18.79;23.06;102270.81;5051554;28;20140;-69
2022/04/29 07:00:49;;;;;;;18.38;4.63;;;;;;;18.52;22.47;102269.38;5051682;28;20463;-71
2022/04/29 07:03:16;;;;;;;13.13;5.13;;;;;;;18.59;22.11;102272.25;5051928;28;20041;-71
2022/04/29 07:05:42;;;;;;;13.32;3.65;;;;;;;18.01;22.17;102281.53;5051171;28;20481;-70
2022/04/29 07:08:09;;;;;;;17.52;3.90;;;;;;;18.65;21.94;102271.50;5051655;28;20551;-70
2022/04/29 07:10:36;;;;;;;21.45;3.95;;;;;;;18.91;21.43;102281.28;5052482;28;20408;-70
2022/04/29 07:13:03;;;;;;;19.30;4.05;;;;;;;19.16;20.74;102273.84;5049840;28;20124;-71
2022/04/29 07:15:30;;;;;;;13.45;3.88;;;;;;;19.58;20.47;102272.53;5050583;28;20099;-70
2022/04/29 07:17:56;;;;;;;11.32;3.80;;;;;;;19.01;21.06;102266.47;5043204;28;20120;-71
2022/04/29 07:20:23;;;;;;;12.63;3.15;;;;;;;19.72;20.32;102260.88;5050684;28;20124;-70
2022/04/29 07:22:49;;;;;;;13.40;3.30;;;;;;;19.86;20.20;102265.50;5051928;28;20072;-70
2022/04/29 07:25:16;;;;;;;15.05;3.40;;;;;;;19.15;20.45;102269.44;5051712;28;20132;-71
2022/04/29 07:27:42;;;;;;;15.77;3.10;;;;;;;20.14;19.90;102267.59;5050731;28;20102;-71
2022/04/29 07:30:11;;;;;;;12.60;3.17;;;;;;;20.22;19.64;102269.44;5050214;28;20102;-70
2022/04/29 07:32:38;;;;;;;10.63;3.40;;;;;;;20.66;19.24;102266.69;5050485;28;20448;-70
2022/04/29 07:43:29;;;;;;;21.45;2.88;;;;;;;19.87;19.13;102259.03;5048070;28;20049;-70
2022/04/29 07:45:56;;;;;;;13.48;4.28;;;;;;;21.23;18.49;102265.94;5050292;28;20045;-71
2022/04/29 07:48:23;;;;;;;22.45;5.43;;;;;;;21.44;18.11;102256.91;5050352;28;20128;-71
2022/04/29 07:50:50;;;;;;;15.23;3.30;;;;;;;20.34;18.63;102257.84;5050903;28;20129;-70
2022/04/29 07:53:17;;;;;;;10.05;2.75;;;;;;;21.19;18.33;102259.19;5050676;28;20508;-70
2022/04/29 07:55:44;;;;;;;9.90;3.03;;;;;;;21.00;17.97;102257.03;5050577;28;20461;-69
2022/04/29 07:58:10;;;;;;;14.70;3.35;;;;;;;20.69;18.54;102255.41;5050579;28;20072;-71
2022/04/29 08:00:39;;;;;;;12.55;3.65;;;;;;;20.24;18.58;102246.38;5050579;28;20386;-70
2022/04/29 08:03:26;;;;;;;11.02;3.60;;;;;;;20.70;18.42;102248.94;5049485;28;20065;-70
2022/04/29 08:05:53;;;;;;;13.95;3.15;;;;;;;19.72;18.90;102244.53;5049083;28;20055;-69
2022/04/29 08:08:20;;;;;;;10.68;2.83;;;;;;;20.95;17.88;102246.72;5050085;28;20069;-71
2022/04/29 08:10:46;;;;;;;8.27;2.90;;;;;;;21.37;17.71;102245.09;5053500;28;20076;-71
2022/04/29 08:13:13;;;;;;;12.50;2.83;;;;;;;20.52;18.35;102243.88;5054274;28;20504;-70
2022/04/29 08:15:43;;;;;;;13.23;2.97;;;;;;;20.65;18.23;102244.03;5053812;28;20529;-70
2022/04/29 08:18:10;;;;;;;15.02;3.25;;;;;;;21.34;17.68;102251.78;5053897;28;20060;-71
2022/04/29 08:20:36;;;;;;;7.95;2.38;;;;;;;21.41;17.27;102251.00;5053720;28;20049;-70
2022/04/29 08:23:03;;;;;;;11.43;2.63;;;;;;;22.18;17.40;102242.81;5052088;28;20119;-71
2022/04/29 08:25:29;;;;;;;14.68;2.80;;;;;;;21.06;17.99;102250.81;5054234;28;20489;-71
2022/04/29 08:27:59;;;;;;;13.18;2.65;;;;;;;21.63;17.56;102252.66;5054323;28;20485;-70
2022/04/29 08:30:30;;;;;;;10.40;2.50;;;;;;;22.26;16.90;102252.75;5053751;28;20132;-70
2022/04/29 08:33:01;;;;;;;7.07;2.40;;;;;;;22.13;17.00;102245.31;5053611;28;20048;-70
2022/04/29 08:35:29;;;;;;;12.90;3.00;;;;;;;21.21;17.80;102251.63;5054608;28;20052;-70
2022/04/29 08:37:57;;;;;;;11.43;2.45;;;;;;;22.83;16.53;102253.47;5053411;28;20489;-69
2022/04/29 08:40:24;;;;;;;10.38;2.55;;;;;;;23.52;16.20;102242.28;5054024;28;20112;-69
2022/04/29 08:42:53;;;;;;;12.10;3.60;;;;;;;21.91;17.32;102251.88;5054359;28;20041;-69
2022/04/29 08:45:19;;;;;;;13.52;2.97;;;;;;;21.44;17.86;102253.34;5046734;28;20481;-69
2022/04/29 08:47:47;;;;;;;10.73;2.90;;;;;;;22.33;17.04;102243.53;5053811;28;20049;-69
2022/04/29 08:50:19;;;;;;;8.88;2.75;;;;;;;22.73;16.77;102246.47;5054709;28;20045;-73
2022/04/29 08:52:48;;;;;;;9.13;2.60;;;;;;;23.51;16.43;102240.59;5055307;28;20056;-73
2022/04/29 09:00:45;;;;;;;11.55;3.30;;;;;;;22.62;17.38;102238.03;5055854;28;20488;-73
2022/04/29 09:03:20;;;;;;;9.23;3.30;;;;;;;21.67;18.44;102240.31;5053518;28;20071;-72
2022/04/29 09:05:48;;;;;;;8.63;3.72;;;;;;;21.91;18.34;102238.22;5053002;28;20056;-73
2022/04/29 09:08:20;;;;;;;11.60;3.80;;;;;;;22.42;18.18;102235.16;5055337;28;20095;-73
2022/04/29 09:10:51;;;;;;;;;;;;;;;23.58;16.96;102232.38;5054332;28;20180;-73
2022/04/29 09:13:28;;;;;;;19.60;4.50;;;;;;;23.20;16.91;102228.34;5054921;28;19921;-73
2022/04/29 09:16:04;;;;;;;11.10;3.92;;;;;;;24.34;16.05;102229.13;5054746;28;20080;-73
2022/04/29 09:18:33;;;;;;;14.02;3.88;;;;;;;24.48;16.43;102222.56;5053363;28;20056;-73
2022/04/29 09:21:22;;;;;;;12.50;3.40;;;;;;;24.68;16.57;102220.59;5054820;28;20073;-73
2022/04/29 09:23:54;;;;;;;9.48;3.85;;;;;;;24.68;16.11;102230.69;5055645;28;20091;-74
2022/04/29 09:26:28;;;;;;;12.15;4.22;;;;;;;24.76;16.21;102229.63;5055663;28;20041;-73
2022/04/29 09:29:13;;;;;;;8.95;3.95;;;;;;;25.27;15.77;102220.44;5055548;28;20127;-73
2022/04/29 09:31:56;;;;;;;11.18;4.57;;;;;;;24.11;16.47;102222.22;5055826;28;20555;-74
2022/04/29 09:34:58;;;;;;;8.75;4.00;;;;;;;23.07;18.08;102228.28;5055304;28;20469;-72
2022/04/29 09:37:27;;;;;;;15.05;4.28;;;;;;;22.76;17.56;102228.81;5055583;28;20382;-73
2022/04/29 09:40:00;;;;;;;10.23;3.88;;;;;;;21.95;18.27;102225.84;5050991;28;20041;-73
2022/04/29 09:42:42;;;;;;;15.30;4.97;;;;;;;21.03;19.26;102222.03;5055230;28;20461;-73
2022/04/29 09:45:22;;;;;;;13.50;4.53;;;;;;;21.66;18.99;102224.13;5054960;28;20041;-73
2022/04/29 09:47:56;;;;;;;13.82;4.20;;;;;;;21.15;18.72;102216.97;5056813;28;20075;-73
2022/04/29 09:50:49;;;;;;;12.50;4.20;;;;;;;21.63;18.65;102214.44;5053718;28;20477;-73
2022/04/29 09:53:17;;;;;;;11.45;4.18;;;;;;;22.67;18.05;102210.88;5055562;28;20045;-73
2022/04/29 09:56:08;;;;;;;8.50;3.47;;;;;;;23.51;17.13;102199.50;5055254;28;20128;-73
2022/04/29 09:58:34;;;;;;;14.27;4.63;;;;;;;24.09;16.46;102202.41;5054059;28;20072;-73
2022/04/29 10:01:04;;;;;;;20.85;7.30;;;;;;;24.89;15.94;102191.97;5053938;28;20068;-73
2022/04/29 10:03:31;;;;;;;10.60;4.05;;;;;;;24.96;15.80;102194.66;5054303;28;20045;-73
2022/04/29 10:06:00;;;;;;;11.98;3.47;;;;;;;24.64;15.83;102191.88;5054111;28;20045;-73
2022/04/29 10:08:30;;;;;;;14.85;3.97;;;;;;;25.24;15.51;102193.47;5054766;28;20044;-74
2022/04/29 10:10:57;;;;;;;19.50;5.07;;;;;;;24.30;16.08;102190.34;5054272;28;20044;-72
2022/04/29 10:13:27;;;;;;;10.82;3.97;;;;;;;25.06;15.43;102195.06;5054502;28;20051;-73
2022/04/29 10:15:53;;;;;;;17.50;4.30;;;;;;;23.16;17.05;102194.22;5054077;28;20060;-73
2022/04/29 10:21:15;;;;;;;10.30;3.83;;;;;;;25.14;15.40;102189.28;5054473;28;20066;-74
2022/04/29 10:23:48;;;;;;;12.60;3.85;;;;;;;25.81;14.82;102184.06;5053882;28;20480;-75
2022/04/29 10:26:17;;;;;;;14.93;3.95;;;;;;;23.69;16.79;102183.25;5053629;28;20207;-72
2022/04/29 10:28:44;;;;;;;8.38;3.40;;;;;;;23.92;16.16;102179.25;5053421;28;20178;-73
2022/04/29 10:31:17;;;;;;;8.85;3.38;;;;;;;21.85;17.79;102188.78;5053877;28;20127;-73
2022/04/29 10:33:44;;;;;;;22.42;4.60;;;;;;;22.96;17.01;102190.56;5052207;28;20131;-72
2022/04/29 10:36:14;;;;;;;14.10;3.47;;;;;;;24.98;15.24;102184.28;5053613;28;20095;-73
2022/04/29 10:38:46;;;;;;;11.07;4.00;;;;;;;24.18;15.85;102176.44;5053429;28;20037;-72
2022/04/29 10:41:16;;;;;;;;;;;;;;;23.29;16.52;102167.88;5053434;28;20440;-73
2022/04/29 10:43:50;;;;;;;8.90;4.03;;;;;;;23.29;16.72;102162.41;5053451;28;19920;-73
2022/04/29 10:46:29;;;;;;;8.40;3.38;;;;;;;24.34;15.85;102163.31;5052632;28;20136;-73
2022/04/29 10:48:56;;;;;;;13.95;4.03;;;;;;;24.40;15.69;102168.81;5052127;28;20049;-73
2022/04/29 10:51:29;;;;;;;17.20;9.48;;;;;;;23.30;16.96;102155.91;5054226;28;20114;-73
2022/04/29 10:53:58;;;;;;;12.63;5.10;;;;;;;23.29;16.36;102166.00;5053751;28;20068;-73
2022/04/29 10:56:30;;;;;;;13.18;3.75;;;;;;;23.27;16.85;102158.00;5053726;28;20065;-73
2022/04/29 10:59:09;;;;;;;13.40;3.95;;;;;;;23.04;17.54;102163.84;5053206;28;20132;-72
2022/04/29 11:01:37;;;;;;;14.77;4.07;;;;;;;24.02;15.98;102154.13;5053025;28;20045;-72
2022/04/29 11:04:27;;;;;;;11.75;4.25;;;;;;;23.33;16.36;102155.47;5052959;28;20099;-73
2022/04/29 11:06:54;;;;;;;11.38;4.10;;;;;;;22.76;16.88;102155.78;5051582;28;20067;-72
2022/04/29 11:09:30;;;;;;;12.90;3.78;;;;;;;23.89;15.53;102149.53;5053747;28;20449;-72
2022/04/29 11:12:00;;;;;;;10.13;3.88;;;;;;;24.32;15.45;102151.69;5053162;28;20037;-73
2022/04/29 11:14:26;;;;;;;10.50;4.25;;;;;;;24.05;16.30;102148.22;5052834;28;20069;-73
2022/04/29 11:16:55;;;;;;;12.15;3.70;;;;;;;24.69;15.58;102144.59;5053982;28;20047;-73
2022/04/29 11:19:28;;;;;;;11.13;3.72;;;;;;;25.23;15.29;102142.31;5052797;28;20485;-73
2022/04/29 11:24:50;;;;;;;10.75;3.38;;;;;;;24.79;15.10;102133.13;5052139;28;20075;-73
2022/04/29 11:27:34;;;;;;;8.45;3.60;;;;;;;24.48;15.58;102125.72;5051575;28;20044;-73
2022/04/29 11:30:03;;;;;;;15.95;3.88;;;;;;;25.52;14.88;102125.16;5048223;28;20485;-73
2022/04/29 11:32:30;;;;;;;6.20;3.20;;;;;;;25.79;14.63;102127.63;5052023;28;20534;-73
2022/04/29 11:35:00;;;;;;;17.85;3.70;;;;;;;25.99;14.46;102125.50;5053328;28;20055;-73
2022/04/29 11:37:34;;;;;;;7.75;2.97;;;;;;;27.50;13.03;102117.19;5054101;28;20055;-73
2022/04/29 11:40:03;;;;;;;13.10;3.97;;;;;;;26.97;13.35;102112.56;5054307;28;20072;-75
2022/04/29 11:42:30;;;;;;;11.57;4.45;;;;;;;25.28;14.71;102109.53;5054086;28;20051;-73
2022/04/29 11:45:07;;;;;;;9.15;3.40;;;;;;;27.12;12.95;102101.09;5050399;28;20049;-73
2022/04/29 11:47:33;;;;;;;11.23;3.20;;;;;;;25.17;14.17;102113.88;5052424;28;20056;-73
2022/04/29 11:50:03;;;;;;;11.63;2.85;;;;;;;26.52;13.55;102107.50;5051901;28;20060;-72
2022/04/29 11:52:33;;;;;;;12.95;4.18;;;;;;;25.95;13.16;102116.03;5051561;28;20079;-72
2022/04/29 11:55:12;;;;;;;10.25;3.25;;;;;;;25.76;13.58;102100.63;5046704;28;20068;-73
2022/04/29 11:57:46;;;;;;;8.18;2.95;;;;;;;24.03;15.11;102107.31;5051810;28;20061;-73